Time;durP1;ratioP1;P1;durP2;ratioP2;P2;SDS_P1;SDS_P2;PMS_P1;PMS_P2;Temp;Humidity;BMP_temperature;BMP_pressure;BME280_temperature;BME280_humidity;BME280_pressure;Samples;Min_cycle;Max_cycle;Signal;HPM_P1;HPM_P2
2022/06/09 19:43:41;;;;;;;17.83;13.60;;;;;;;19.38;100.00;99380.47;5274256;22;1420748;-53
2022/06/09 19:46:16;;;;;;;21.73;14.73;;;;;;;19.47;100.00;99380.97;5150131;22;26160;-57
2022/06/09 19:48:45;;;;;;;17.70;13.50;;;;;;;19.46;100.00;99389.31;5134355;22;20204;-58
2022/06/09 19:51:12;;;;;;;17.47;13.67;;;;;;;19.51;100.00;99409.16;5128599;22;20291;-60
2022/06/09 19:53:39;;;;;;;18.57;13.87;;;;;;;19.49;100.00;99405.03;5150603;22;20709;-61
2022/06/09 19:56:06;;;;;;;23.23;14.40;;;;;;;19.50;100.00;99412.91;5165783;22;20205;-58
2022/06/09 19:58:33;;;;;;;17.67;14.60;;;;;;;19.54;100.00;99421.38;5149350;22;21733;-61
2022/06/09 20:01:05;;;;;;;19.70;15.93;;;;;;;19.55;100.00;99423.84;5142351;22;22044;-59
2022/06/09 20:03:35;;;;;;;22.80;14.83;;;;;;;19.67;100.00;99445.47;5149289;22;21499;-57
2022/06/09 20:06:05;;;;;;;20.30;15.47;;;;;;;19.60;100.00;99444.75;5122448;22;21877;-59
2022/06/09 20:08:33;;;;;;;20.07;15.13;;;;;;;19.35;100.00;99439.47;5150546;22;21200;-58
2022/06/09 20:11:00;;;;;;;21.80;16.17;;;;;;;19.21;100.00;99449.59;5139752;22;20349;-60
2022/06/09 20:13:27;;;;;;;22.83;15.80;;;;;;;19.11;100.00;99452.00;5149023;22;20207;-59
2022/06/09 20:15:54;;;;;;;20.07;15.87;;;;;;;19.07;100.00;99464.28;5151287;22;20204;-55
2022/06/09 20:18:25;;;;;;;19.47;15.63;;;;;;;19.10;100.00;99496.19;5125113;22;20205;-59
2022/06/09 20:20:54;;;;;;;20.47;16.43;;;;;;;19.19;100.00;99500.22;5156629;22;20648;-59
2022/06/09 20:23:21;;;;;;;26.03;18.70;;;;;;;19.14;100.00;99505.47;5145260;22;22997;-58
2022/06/09 20:25:50;;;;;;;24.03;17.53;;;;;;;19.17;100.00;99510.41;5128434;22;20494;-57
2022/06/09 20:28:27;;;;;;;25.77;17.63;;;;;;;19.20;100.00;99510.00;5118247;22;20197;-61
2022/06/09 20:30:55;;;;;;;21.90;17.80;;;;;;;19.03;100.00;99509.72;5146352;22;20205;-60
2022/06/09 20:33:22;;;;;;;25.33;19.07;;;;;;;18.94;100.00;99511.06;5143966;22;20597;-60
2022/06/09 20:35:50;;;;;;;26.87;18.63;;;;;;;18.94;100.00;99505.66;5122705;22;20197;-59
2022/06/09 20:38:29;;;;;;;25.77;19.57;;;;;;;18.89;100.00;99509.03;5188588;22;20201;-50
2022/06/09 20:40:57;;;;;;;29.87;21.13;;;;;;;18.80;100.00;99505.00;5131473;22;20202;-58
2022/06/09 20:43:23;;;;;;;24.20;19.77;;;;;;;18.82;100.00;99508.25;5136249;22;20210;-59
2022/06/09 20:45:56;;;;;;;24.17;18.93;;;;;;;18.91;100.00;99504.25;5116054;22;20232;-58
2022/06/09 20:48:26;;;;;;;25.90;18.40;;;;;;;18.97;100.00;99500.66;5104165;22;20201;-59
2022/06/09 20:50:53;;;;;;;27.00;17.13;;;;;;;18.97;100.00;99503.38;5103358;22;20379;-57
2022/06/09 20:53:20;;;;;;;24.33;17.77;;;;;;;18.92;100.00;99514.00;5125551;22;21446;-59
2022/06/09 20:55:47;;;;;;;20.73;16.70;;;;;;;18.92;100.00;99513.19;5116139;22;20536;-58
2022/06/09 20:58:13;;;;;;;20.23;16.23;;;;;;;18.97;100.00;99514.16;5105422;22;20209;-59
2022/06/09 21:00:41;;;;;;;23.00;15.93;;;;;;;18.96;100.00;99520.59;5118260;22;20209;-56
2022/06/09 21:03:08;;;;;;;23.20;17.07;;;;;;;18.87;100.00;99530.03;5126173;22;20224;-67
2022/06/09 21:05:36;;;;;;;22.63;15.93;;;;;;;18.87;100.00;99534.56;5143955;22;21718;-67
2022/06/09 21:08:03;;;;;;;24.37;16.47;;;;;;;18.86;100.00;99536.44;5093806;22;21426;-69
2022/06/09 21:18:48;;;;;;;23.73;15.87;;;;;;;18.67;100.00;99537.41;5138981;22;25863;-73
2022/06/09 21:21:15;;;;;;;22.80;16.30;;;;;;;18.60;100.00;99542.03;5124929;22;20197;-73
2022/06/09 21:23:42;;;;;;;19.07;15.83;;;;;;;18.45;100.00;99550.41;5102884;22;20969;-75
2022/06/09 21:26:09;;;;;;;24.23;15.77;;;;;;;18.41;100.00;99549.22;5119684;22;20220;-75
2022/06/09 21:28:43;;;;;;;18.63;15.43;;;;;;;18.56;100.00;99549.72;5101891;22;20383;-75
2022/06/09 21:31:09;;;;;;;20.17;14.97;;;;;;;18.49;100.00;99563.22;5107908;22;21250;-75
2022/06/09 21:33:36;;;;;;;21.23;14.57;;;;;;;18.49;100.00;99571.31;5124782;22;21608;-71
2022/06/09 21:36:03;;;;;;;18.20;14.73;;;;;;;18.52;100.00;99583.56;5127136;22;21157;-75
2022/06/09 21:38:29;;;;;;;19.57;14.90;;;;;;;18.34;100.00;99589.66;5126993;22;20213;-72
2022/06/09 21:40:56;;;;;;;17.83;14.47;;;;;;;18.31;100.00;99590.09;5122723;22;20202;-72
2022/06/09 21:43:23;;;;;;;23.80;15.53;;;;;;;18.31;100.00;99598.19;5127318;22;25333;-75
2022/06/09 21:45:49;;;;;;;19.83;14.47;;;;;;;18.39;100.00;99591.72;5115173;22;20213;-72
2022/06/09 21:48:16;;;;;;;18.50;13.53;;;;;;;18.41;100.00;99586.94;5138417;22;20370;-76
2022/06/09 21:50:43;;;;;;;16.93;12.73;;;;;;;18.45;100.00;99582.75;5125717;22;20210;-73
2022/06/09 21:53:09;;;;;;;20.17;13.30;;;;;;;18.39;100.00;99584.44;5099203;23;22864;-72
2022/06/09 21:55:36;;;;;;;16.30;12.83;;;;;;;18.39;100.00;99589.03;5110885;22;20629;-74
2022/06/09 21:58:02;;;;;;;15.90;12.10;;;;;;;18.47;100.00;99588.75;5096284;22;20317;-72
2022/06/09 22:00:34;;;;;;;19.17;13.07;;;;;;;18.40;100.00;99585.28;5150593;22;20208;-73
2022/06/09 22:03:01;;;;;;;18.83;12.23;;;;;;;18.43;100.00;99582.16;5125580;22;22276;-72
2022/06/09 22:05:27;;;;;;;14.03;11.73;;;;;;;18.45;100.00;99588.97;5105521;22;20296;-74
2022/06/09 22:07:54;;;;;;;19.77;12.50;;;;;;;18.39;100.00;99581.75;5119403;22;20199;-73
2022/06/09 22:10:25;;;;;;;15.77;11.87;;;;;;;18.35;100.00;99588.59;5079367;22;22056;-72
2022/06/09 22:12:52;;;;;;;13.40;11.80;;;;;;;18.39;100.00;99589.03;5098841;22;20201;-73
2022/06/09 22:15:19;;;;;;;18.63;11.17;;;;;;;18.41;100.00;99590.44;5115627;22;20198;-74
2022/06/09 22:17:46;;;;;;;18.50;11.87;;;;;;;18.35;100.00;99583.22;5110745;22;20202;-73
2022/06/09 22:20:16;;;;;;;14.87;11.93;;;;;;;18.36;100.00;99568.72;5121218;22;21640;-73
2022/06/09 22:22:44;;;;;;;15.73;11.70;;;;;;;18.31;100.00;99566.69;5106234;22;20243;-73
2022/06/09 22:25:11;;;;;;;14.53;11.07;;;;;;;18.28;100.00;99567.09;5125917;22;20228;-73
2022/06/09 22:27:38;;;;;;;17.13;11.07;;;;;;;18.22;100.00;99561.78;5127193;22;21502;-72
2022/06/09 22:30:06;;;;;;;14.60;11.17;;;;;;;18.18;100.00;99558.69;5140919;22;21854;-72
2022/06/09 22:32:33;;;;;;;16.97;11.80;;;;;;;18.18;100.00;99553.28;5119447;22;20476;-72
2022/06/09 22:34:59;;;;;;;16.73;12.27;;;;;;;18.06;100.00;99547.75;5121974;22;21118;-71
2022/06/09 22:37:26;;;;;;;15.03;11.53;;;;;;;18.08;100.00;99561.03;5125014;22;20206;-74
2022/06/09 22:39:52;;;;;;;16.80;11.60;;;;;;;18.02;100.00;99562.69;5114642;22;20207;-72
2022/06/09 22:42:19;;;;;;;20.83;12.27;;;;;;;17.93;100.00;99566.66;5123118;22;20206;-74
2022/06/09 22:44:45;;;;;;;15.37;11.87;;;;;;;18.01;100.00;99562.94;5123528;22;20202;-74
2022/06/09 22:47:12;;;;;;;16.87;12.20;;;;;;;18.05;100.00;99556.03;5111485;22;20205;-72
2022/06/09 22:49:38;;;;;;;17.17;11.50;;;;;;;17.95;100.00;99553.00;5122332;22;20198;-72
2022/06/09 22:52:05;;;;;;;17.60;12.73;;;;;;;17.86;100.00;99565.88;5130553;22;22003;-73
2022/06/09 22:54:31;;;;;;;17.83;12.10;;;;;;;17.82;100.00;99561.97;5127966;22;20215;-73
2022/06/09 22:56:58;;;;;;;16.80;12.33;;;;;;;17.78;100.00;99560.72;5102826;22;20210;-74
2022/06/09 22:59:24;;;;;;;19.90;12.53;;;;;;;17.81;100.00;99566.53;5118748;22;20202;-76
2022/06/09 23:01:51;;;;;;;16.00;13.03;;;;;;;17.81;100.00;99569.22;5123307;22;20240;-74
2022/06/09 23:04:17;;;;;;;17.83;13.40;;;;;;;17.79;100.00;99567.75;5106188;22;20255;-75
2022/06/09 23:06:44;;;;;;;18.60;12.80;;;;;;;17.76;100.00;99568.19;5107347;22;20202;-74
2022/06/09 23:09:10;;;;;;;22.20;12.73;;;;;;;17.75;100.00;99571.88;5122483;22;20264;-73
2022/06/09 23:11:37;;;;;;;17.03;13.53;;;;;;;17.70;100.00;99565.31;5126859;22;20206;-73
2022/06/09 23:14:03;;;;;;;19.13;14.40;;;;;;;17.76;100.00;99578.94;5123431;22;20217;-72
2022/06/09 23:16:38;;;;;;;16.23;13.57;;;;;;;17.68;100.00;99588.09;5106558;22;20347;-74
2022/06/09 23:19:06;;;;;;;18.80;13.93;;;;;;;17.64;100.00;99576.09;5130175;22;20205;-73
2022/06/09 23:21:32;;;;;;;18.50;12.83;;;;;;;17.65;100.00;99570.50;5125392;22;20263;-72
2022/06/09 23:23:59;;;;;;;17.57;13.03;;;;;;;17.68;100.00;99577.31;5110985;22;21784;-73
2022/06/09 23:26:27;;;;;;;17.80;13.80;;;;;;;17.63;100.00;99572.56;5127682;22;22060;-75
2022/06/09 23:28:53;;;;;;;16.43;13.17;;;;;;;17.55;100.00;99571.97;5100901;22;20200;-72
2022/06/09 23:31:21;;;;;;;16.00;12.97;;;;;;;17.54;100.00;99581.91;5129288;22;20292;-72
2022/06/09 23:33:48;;;;;;;18.97;14.07;;;;;;;17.59;100.00;99576.72;5126243;22;20210;-72
2022/06/09 23:36:21;;;;;;;17.83;13.37;;;;;;;17.62;100.00;99576.28;5114120;22;20952;-74
2022/06/09 23:38:48;;;;;;;17.07;12.83;;;;;;;17.60;100.00;99581.06;5106507;22;21108;-75
2022/06/09 23:41:16;;;;;;;19.37;13.27;;;;;;;17.55;100.00;99580.88;5094427;22;20202;-73
2022/06/09 23:43:43;;;;;;;20.17;13.53;;;;;;;17.52;100.00;99590.19;5126079;22;23213;-74
2022/06/09 23:46:12;;;;;;;22.53;13.13;;;;;;;17.55;100.00;99578.16;5124372;22;21161;-70
2022/06/09 23:48:40;;;;;;;18.77;13.27;;;;;;;17.61;100.00;99587.28;5130636;22;20205;-72
2022/06/09 23:51:12;;;;;;;20.63;13.23;;;;;;;17.56;100.00;99589.75;5124600;22;20461;-74
2022/06/09 23:53:42;;;;;;;20.63;13.30;;;;;;;17.56;100.00;99574.47;5112801;22;20240;-73
2022/06/09 23:56:12;;;;;;;18.87;13.30;;;;;;;17.48;100.00;99577.38;5109227;22;22706;-74
2022/06/09 23:58:38;;;;;;;17.57;12.73;;;;;;;17.56;100.00;99579.00;5110250;22;20823;-76
